createdAt,value
2019-02-17T00:02:04.555Z,77.00
2019-02-17T00:04:33.892Z,77.19
2019-02-17T00:07:03.275Z,77.81
2019-02-17T00:09:34.167Z,77.27
2019-02-17T00:12:03.507Z,77.28
2019-02-17T00:14:32.874Z,77.18
2019-02-17T00:17:03.924Z,76.89
2019-02-17T00:19:33.374Z,76.98
2019-02-17T00:22:02.712Z,76.80
2019-02-17T00:24:32.086Z,77.35
2019-02-17T00:27:01.432Z,77.69
2019-02-17T00:29:30.798Z,78.91
2019-02-17T00:32:00.134Z,78.41
2019-02-17T00:34:29.505Z,78.83
2019-02-17T00:36:58.847Z,79.06
2019-02-17T00:39:28.215Z,78.99
2019-02-17T00:41:57.700Z,77.88
2019-02-17T00:44:27.064Z,78.77
2019-02-17T00:46:56.476Z,78.79
2019-02-17T00:49:26.519Z,78.58
2019-02-17T00:51:55.858Z,78.42
2019-02-17T00:54:25.735Z,77.68
2019-02-17T00:56:55.078Z,77.70
2019-02-17T00:59:24.442Z,77.37
2019-02-17T01:01:53.787Z,77.34
2019-02-17T01:04:23.531Z,77.35
2019-02-17T01:06:52.874Z,77.35
2019-02-17T01:09:22.830Z,76.97
2019-02-17T01:11:52.170Z,76.69
2019-02-17T01:14:21.537Z,75.96
2019-02-17T01:16:50.883Z,75.45
2019-02-17T01:19:20.244Z,75.04
2019-02-17T01:21:49.609Z,74.66
2019-02-17T01:24:18.998Z,74.32
2019-02-17T01:26:48.343Z,74.14
2019-02-17T01:29:20.436Z,73.68
2019-02-17T01:31:48.741Z,73.57
2019-02-17T01:34:18.121Z,73.31
2019-02-17T01:36:47.458Z,73.44
2019-02-17T01:39:16.814Z,74.13
2019-02-17T01:41:46.149Z,73.99
2019-02-17T01:44:15.511Z,75.00
2019-02-17T01:46:44.851Z,75.20
2019-02-17T01:49:14.214Z,75.31
2019-02-17T01:51:43.549Z,76.17
2019-02-17T01:54:12.913Z,75.73
2019-02-17T01:56:42.257Z,75.82
2019-02-17T01:59:11.629Z,76.19
2019-02-17T02:01:40.959Z,76.26
2019-02-17T02:04:10.336Z,76.11
2019-02-17T02:06:39.677Z,76.13
2019-02-17T02:09:09.713Z,76.58
2019-02-17T02:11:39.045Z,76.98
2019-02-17T02:14:08.409Z,77.19
2019-02-17T02:16:38.109Z,77.34
2019-02-17T02:19:07.476Z,76.74
2019-02-17T02:21:36.833Z,76.87
2019-02-17T02:24:06.208Z,77.12
2019-02-17T02:26:35.546Z,77.11
2019-02-17T02:29:04.921Z,77.03
2019-02-17T02:31:34.254Z,76.79
2019-02-17T02:34:03.617Z,77.10
2019-02-17T02:36:32.952Z,76.44
2019-02-17T02:39:02.335Z,76.73
2019-02-17T02:41:34.675Z,76.72
2019-02-17T02:44:02.821Z,76.91
2019-02-17T02:46:32.164Z,76.67
2019-02-17T02:49:01.522Z,76.20
2019-02-17T02:51:30.892Z,76.48
2019-02-17T02:54:00.257Z,76.64
2019-02-17T02:56:29.619Z,76.93
2019-02-17T02:58:58.951Z,76.83
2019-02-17T03:01:28.328Z,77.00
2019-02-17T03:03:57.662Z,76.60
2019-02-17T03:06:28.659Z,76.61
2019-02-17T03:08:58.007Z,76.83
2019-02-17T03:11:27.865Z,76.80
2019-02-17T03:13:57.150Z,77.39
2019-02-17T03:16:26.508Z,77.83
2019-02-17T03:18:55.839Z,78.13
2019-02-17T03:21:25.713Z,78.96
2019-02-17T03:23:55.047Z,78.43
2019-02-17T03:26:24.728Z,78.27
2019-02-17T03:28:54.064Z,78.46
2019-02-17T03:31:23.893Z,78.52
2019-02-17T03:33:53.481Z,78.67
2019-02-17T03:36:22.850Z,79.05
2019-02-17T03:38:52.194Z,79.34
2019-02-17T03:41:21.559Z,78.55
2019-02-17T03:43:50.975Z,78.57
2019-02-17T03:46:21.145Z,78.35
2019-02-17T03:48:50.482Z,78.40
2019-02-17T03:51:19.910Z,78.72
2019-02-17T03:53:49.243Z,78.74
2019-02-17T03:56:18.610Z,79.11
2019-02-17T03:58:47.946Z,79.71
2019-02-17T04:01:17.314Z,79.73
2019-02-17T04:03:46.731Z,79.10
2019-02-17T04:06:16.109Z,79.56
2019-02-17T04:08:45.436Z,79.28
2019-02-17T04:11:14.802Z,78.72
2019-02-17T04:13:44.141Z,79.73
2019-02-17T04:16:13.501Z,79.57
2019-02-17T04:18:42.837Z,79.54
2019-02-17T04:21:12.271Z,79.45
2019-02-17T04:23:41.620Z,79.56
2019-02-17T04:26:11.000Z,78.98
2019-02-17T04:28:40.341Z,78.67
2019-02-17T04:31:09.700Z,78.21
2019-02-17T04:33:39.044Z,77.33
2019-02-17T04:36:08.419Z,77.33
2019-02-17T04:38:37.756Z,77.00
2019-02-17T04:41:07.121Z,78.27
2019-02-17T04:43:36.452Z,78.41
2019-02-17T04:46:05.820Z,78.57
2019-02-17T04:48:35.153Z,78.88
2019-02-17T04:51:04.522Z,79.19
2019-02-17T04:53:33.850Z,78.70
2019-02-17T04:56:03.233Z,79.33
2019-02-17T04:58:32.580Z,79.56
2019-02-17T05:01:01.932Z,79.79
2019-02-17T05:03:31.317Z,79.89
2019-02-17T05:06:00.686Z,79.65
2019-02-17T05:08:30.013Z,79.38
2019-02-17T05:10:59.457Z,79.41
2019-02-17T05:13:28.827Z,79.39
2019-02-17T05:15:58.168Z,79.29
2019-02-17T05:18:27.504Z,79.08
2019-02-17T05:20:56.841Z,78.89
2019-02-17T05:23:26.201Z,78.74
2019-02-17T05:25:55.541Z,79.02
2019-02-17T05:28:24.907Z,78.72
2019-02-17T05:30:54.242Z,78.63
2019-02-17T05:33:23.614Z,78.73
2019-02-17T05:35:53.497Z,78.26
2019-02-17T05:38:22.891Z,76.99
2019-02-17T05:40:52.199Z,77.82
2019-02-17T05:43:21.576Z,77.73
2019-02-17T05:45:50.907Z,77.95
2019-02-17T05:48:20.272Z,78.48
2019-02-17T05:50:49.876Z,79.17
2019-02-17T05:53:19.408Z,79.26
2019-02-17T05:55:49.611Z,79.58
2019-02-17T05:58:18.992Z,79.44
2019-02-17T06:00:48.401Z,79.28
2019-02-17T06:03:17.779Z,78.92
2019-02-17T06:05:47.179Z,78.71
2019-02-17T06:08:16.550Z,78.27
2019-02-17T06:10:45.881Z,78.80
2019-02-17T06:13:15.268Z,78.30
2019-02-17T06:15:44.590Z,78.43
2019-02-17T06:18:14.019Z,79.31
2019-02-17T06:20:43.344Z,79.53
2019-02-17T06:23:13.376Z,79.81
2019-02-17T06:25:42.716Z,79.64
2019-02-17T06:28:12.074Z,80.01
2019-02-17T06:30:41.416Z,79.62
2019-02-17T06:33:10.778Z,79.48
2019-02-17T06:35:40.152Z,79.65
2019-02-17T06:38:09.509Z,79.82
2019-02-17T06:40:38.847Z,79.97
2019-02-17T06:43:08.205Z,79.70
2019-02-17T06:45:37.538Z,79.63
2019-02-17T06:48:06.907Z,79.50
2019-02-17T06:50:36.244Z,79.19
2019-02-17T06:53:05.597Z,79.10
2019-02-17T06:55:45.429Z,78.89
2019-02-17T06:58:14.793Z,79.37
2019-02-17T07:00:45.075Z,79.46
2019-02-17T07:03:14.583Z,79.26
2019-02-17T07:05:45.582Z,79.22
2019-02-17T07:08:15.029Z,79.04
2019-02-17T07:10:44.344Z,78.96
2019-02-17T07:13:13.782Z,78.33
2019-02-17T07:15:43.134Z,78.32
2019-02-17T07:18:12.501Z,77.14
2019-02-17T07:20:41.843Z,76.90
2019-02-17T07:23:11.233Z,76.81
2019-02-17T07:25:40.534Z,75.84
2019-02-17T07:28:09.902Z,75.55
2019-02-17T07:30:39.238Z,75.24
2019-02-17T07:33:08.640Z,75.80
2019-02-17T07:35:37.947Z,74.89
2019-02-17T07:38:07.310Z,74.40
2019-02-17T07:40:36.642Z,74.29
2019-02-17T07:43:06.026Z,73.47
2019-02-17T07:45:35.371Z,72.99
2019-02-17T07:48:04.754Z,72.40
2019-02-17T07:50:34.110Z,72.67
2019-02-17T07:53:03.447Z,72.03
2019-02-17T07:55:32.818Z,71.16
2019-02-17T07:58:02.140Z,70.62
2019-02-17T08:00:31.502Z,70.07
2019-02-17T08:03:00.833Z,69.91
2019-02-17T08:05:30.194Z,70.10
2019-02-17T08:07:59.527Z,69.37
2019-02-17T08:10:28.893Z,69.24
2019-02-17T08:12:58.223Z,68.04
2019-02-17T08:15:27.617Z,67.61
2019-02-17T08:17:56.934Z,67.74
2019-02-17T08:20:26.450Z,66.98
2019-02-17T08:22:55.782Z,66.57
2019-02-17T08:25:25.638Z,65.97
2019-02-17T08:27:54.964Z,65.09
2019-02-17T08:30:24.323Z,64.39
2019-02-17T08:32:53.648Z,64.96
2019-02-17T08:35:23.479Z,64.89
2019-02-17T08:37:52.821Z,63.42
2019-02-17T08:40:22.665Z,63.42
2019-02-17T08:42:51.990Z,62.19
2019-02-17T08:45:21.365Z,62.32
2019-02-17T08:47:50.698Z,61.75
2019-02-17T08:50:20.281Z,61.00
2019-02-17T08:52:49.570Z,60.35
2019-02-17T08:55:18.941Z,60.08
2019-02-17T08:57:48.278Z,59.27
2019-02-17T09:00:17.639Z,59.04
2019-02-17T09:02:46.975Z,58.06
2019-02-17T09:05:16.328Z,57.49
2019-02-17T09:07:45.667Z,57.18
2019-02-17T09:10:15.033Z,56.43
2019-02-17T09:12:44.373Z,55.05
2019-02-17T09:15:13.731Z,53.81
2019-02-17T09:17:43.073Z,53.13
2019-02-17T09:20:12.440Z,52.74
2019-02-17T09:22:41.774Z,52.07
2019-02-17T09:25:11.813Z,51.21
2019-02-17T09:27:41.184Z,51.07
2019-02-17T09:30:15.393Z,50.00
2019-02-17T09:32:44.737Z,49.22
2019-02-17T09:35:14.111Z,48.12
2019-02-17T09:37:43.458Z,46.75
2019-02-17T09:40:13.167Z,45.86
2019-02-17T09:42:42.510Z,46.39
2019-02-17T09:45:13.818Z,45.25
2019-02-17T09:47:43.158Z,42.88
2019-02-17T09:50:15.369Z,41.76
2019-02-17T09:52:44.727Z,42.90
2019-02-17T09:55:14.090Z,41.69
2019-02-17T09:57:43.435Z,40.87
2019-02-17T10:00:15.010Z,40.17
2019-02-17T10:02:44.354Z,40.06
2019-02-17T10:05:13.785Z,38.44
2019-02-17T10:07:43.129Z,37.75
2019-02-17T10:10:14.433Z,37.11
2019-02-17T10:12:43.771Z,36.68
2019-02-17T10:15:13.685Z,36.24
2019-02-17T10:17:43.022Z,36.58
2019-02-17T10:20:15.864Z,37.65
2019-02-17T10:22:45.193Z,37.02
2019-02-17T10:25:14.569Z,36.93
2019-02-17T10:27:43.934Z,37.33
2019-02-17T10:30:14.735Z,38.35
2019-02-17T10:32:44.101Z,37.77
2019-02-17T10:35:13.493Z,39.32
2019-02-17T10:37:42.864Z,40.33
2019-02-17T10:40:14.797Z,41.07
2019-02-17T10:42:44.244Z,41.43
2019-02-17T10:45:13.701Z,41.60
2019-02-17T10:47:43.053Z,42.02
2019-02-17T10:50:12.827Z,41.62
2019-02-17T10:52:42.281Z,40.71
2019-02-17T10:55:12.959Z,40.88
2019-02-17T10:57:42.343Z,39.46
2019-02-17T11:00:14.792Z,39.17
2019-02-17T11:02:47.183Z,37.84
2019-02-17T11:05:15.351Z,37.11
2019-02-17T11:07:44.712Z,36.47
2019-02-17T11:10:14.394Z,36.03
2019-02-17T11:12:43.764Z,35.74
2019-02-17T11:15:20.075Z,35.99
2019-02-17T11:17:49.438Z,35.46
2019-02-17T11:20:18.789Z,35.20
2019-02-17T11:22:48.152Z,35.23
2019-02-17T11:25:17.498Z,36.08
2019-02-17T11:27:46.867Z,35.51
2019-02-17T11:30:20.822Z,34.70
2019-02-17T11:32:57.739Z,34.62
2019-02-17T11:35:21.222Z,34.26
2019-02-17T11:37:50.840Z,34.43
2019-02-17T11:40:20.178Z,34.54
2019-02-17T11:42:49.549Z,34.52
2019-02-17T11:45:19.334Z,33.82
2019-02-17T11:47:48.698Z,34.16
2019-02-17T11:50:18.050Z,34.01
2019-02-17T11:52:47.415Z,34.31
2019-02-17T11:55:16.754Z,35.11
2019-02-17T11:57:46.119Z,33.86
2019-02-17T12:00:22.179Z,33.43
2019-02-17T12:02:51.543Z,32.91
2019-02-17T12:05:20.889Z,31.79
2019-02-17T12:07:50.261Z,31.84
2019-02-17T12:10:19.607Z,31.56
2019-02-17T12:12:48.978Z,32.61
2019-02-17T12:15:18.316Z,31.42
2019-02-17T12:17:47.684Z,30.93
2019-02-17T12:20:32.066Z,31.20
2019-02-17T12:23:03.071Z,29.84
2019-02-17T12:25:34.047Z,29.14
2019-02-17T12:28:05.059Z,29.76
2019-02-17T12:30:34.389Z,29.84
2019-02-17T12:33:03.757Z,28.90
2019-02-17T12:35:33.095Z,28.80
2019-02-17T12:38:02.455Z,28.74
2019-02-17T12:40:31.797Z,27.91
2019-02-17T12:43:01.163Z,29.29
2019-02-17T12:45:30.507Z,28.80
2019-02-17T12:47:59.881Z,29.26
2019-02-17T12:50:29.227Z,29.58
2019-02-17T12:52:58.603Z,29.66
2019-02-17T12:55:27.944Z,29.95
2019-02-17T12:57:57.783Z,29.71
2019-02-17T13:00:27.151Z,30.37
2019-02-17T13:02:56.529Z,29.83
2019-02-17T13:05:25.917Z,29.70
2019-02-17T13:07:55.255Z,30.23
2019-02-17T13:10:24.642Z,29.98
2019-02-17T13:12:53.991Z,31.00
2019-02-17T13:15:23.907Z,31.58
2019-02-17T13:17:53.421Z,32.20
2019-02-17T13:20:22.790Z,31.89
2019-02-17T13:22:52.139Z,30.97
2019-02-17T13:25:21.509Z,29.31
2019-02-17T13:27:50.852Z,29.26
2019-02-17T13:30:22.633Z,28.75
2019-02-17T13:32:51.964Z,29.87
2019-02-17T13:35:21.322Z,29.94
2019-02-17T13:37:50.661Z,29.56
2019-02-17T13:40:20.102Z,28.54
2019-02-17T13:42:49.443Z,28.72
2019-02-17T13:45:18.815Z,29.47
2019-02-17T13:47:48.154Z,30.23
2019-02-17T13:50:17.700Z,31.02
2019-02-17T13:52:47.043Z,31.97
2019-02-17T13:55:16.416Z,33.36
2019-02-17T13:57:46.052Z,34.29
2019-02-17T14:00:19.811Z,35.35
2019-02-17T14:02:49.157Z,37.52
2019-02-17T14:05:18.522Z,38.72
2019-02-17T14:07:47.867Z,38.75
2019-02-17T14:10:17.234Z,38.71
2019-02-17T14:12:46.572Z,38.95
2019-02-17T14:15:19.588Z,38.33
2019-02-17T14:17:48.936Z,39.22
2019-02-17T14:20:18.311Z,39.37
2019-02-17T14:22:47.650Z,39.71
2019-02-17T14:25:17.040Z,40.99
2019-02-17T14:27:46.368Z,41.78
2019-02-17T14:30:16.784Z,42.92
2019-02-17T14:32:46.123Z,43.37
2019-02-17T14:35:15.490Z,44.39
2019-02-17T14:37:44.833Z,44.85
2019-02-17T14:40:14.535Z,45.19
2019-02-17T14:42:43.881Z,45.63
2019-02-17T14:45:17.059Z,45.96
2019-02-17T14:47:46.415Z,46.32
2019-02-17T14:50:15.787Z,46.31
2019-02-17T14:52:45.130Z,46.38
2019-02-17T14:55:14.502Z,46.74
2019-02-17T14:57:43.842Z,47.04
2019-02-17T15:00:14.665Z,47.49
2019-02-17T15:02:43.993Z,47.89
2019-02-17T15:05:13.362Z,48.47
2019-02-17T15:07:42.708Z,49.00
2019-02-17T15:10:13.203Z,49.80
2019-02-17T15:12:42.547Z,50.32
2019-02-17T15:15:13.259Z,50.83
2019-02-17T15:17:42.594Z,50.84
2019-02-17T15:20:23.721Z,51.42
2019-02-17T15:22:53.061Z,51.99
2019-02-17T15:25:22.623Z,52.69
2019-02-17T15:27:51.971Z,53.06
2019-02-17T15:30:21.401Z,53.41
2019-02-17T15:32:50.767Z,55.98
2019-02-17T15:35:22.332Z,57.28
2019-02-17T15:37:51.141Z,55.00
2019-02-17T15:40:20.814Z,55.43
2019-02-17T15:42:50.145Z,56.34
2019-02-17T15:45:19.525Z,56.77
2019-02-17T15:47:48.873Z,57.11
2019-02-17T15:50:18.243Z,57.95
2019-02-17T15:52:47.602Z,57.41
2019-02-17T15:55:16.938Z,57.50
2019-02-17T15:57:46.309Z,58.54
2019-02-17T16:00:17.755Z,58.83
2019-02-17T16:02:47.116Z,61.18
2019-02-17T16:05:16.468Z,61.70
2019-02-17T16:07:45.825Z,62.49
2019-02-17T16:10:16.401Z,62.76
2019-02-17T16:12:45.767Z,63.88
2019-02-17T16:15:20.880Z,63.13
2019-02-17T16:17:50.244Z,63.95
2019-02-17T16:20:19.580Z,64.87
2019-02-17T16:22:48.944Z,65.54
2019-02-17T16:25:18.277Z,67.36
2019-02-17T16:27:47.647Z,66.01
2019-02-17T16:30:23.431Z,66.50
2019-02-17T16:32:52.799Z,66.44
2019-02-17T16:35:22.139Z,66.63
2019-02-17T16:37:51.579Z,67.55
2019-02-17T16:40:20.917Z,68.35
2019-02-17T16:42:50.284Z,68.63
2019-02-17T16:45:19.617Z,67.33
2019-02-17T16:47:49.151Z,67.68
2019-02-17T16:50:23.635Z,67.89
2019-02-17T16:52:53.338Z,68.10
2019-02-17T16:55:22.681Z,69.77
2019-02-17T16:57:52.046Z,70.87
2019-02-17T17:00:25.308Z,71.05
2019-02-17T17:02:57.744Z,70.72
2019-02-17T17:05:27.067Z,69.89
2019-02-17T17:07:56.431Z,70.88
2019-02-17T17:10:25.849Z,70.04
2019-02-17T17:12:55.482Z,70.45
2019-02-17T17:15:24.821Z,71.64
2019-02-17T17:17:54.635Z,72.12
2019-02-17T17:20:23.979Z,73.15
2019-02-17T17:22:53.350Z,72.28
2019-02-17T17:25:22.696Z,71.76
2019-02-17T17:27:52.439Z,71.79
2019-02-17T17:30:21.768Z,72.79
2019-02-17T17:32:51.136Z,72.75
2019-02-17T17:35:20.792Z,73.41
2019-02-17T17:37:50.158Z,74.05
2019-02-17T17:40:19.512Z,74.46
2019-02-17T17:42:48.873Z,72.36
2019-02-17T17:45:21.991Z,73.21
2019-02-17T17:47:51.382Z,73.52
2019-02-17T17:50:20.785Z,74.42
2019-02-17T17:52:50.156Z,74.14
2019-02-17T17:55:19.519Z,74.22
2019-02-17T17:57:48.890Z,74.14
2019-02-17T18:00:20.731Z,74.17
2019-02-17T18:02:50.091Z,74.66
2019-02-17T18:05:19.455Z,74.48
2019-02-17T18:07:48.827Z,74.96
2019-02-17T18:10:18.207Z,74.02
2019-02-17T18:12:47.594Z,74.05
2019-02-17T18:15:18.295Z,74.17
2019-02-17T18:17:54.648Z,75.13
2019-02-17T18:20:18.786Z,75.10
2019-02-17T18:22:48.150Z,74.35
2019-02-17T18:25:17.532Z,75.58
2019-02-17T18:27:46.910Z,74.28
2019-02-17T18:30:22.642Z,75.08
2019-02-17T18:32:52.045Z,76.51
2019-02-17T18:35:21.385Z,76.51
2019-02-17T18:37:50.838Z,76.69
2019-02-17T18:40:20.586Z,75.77
2019-02-17T18:42:49.936Z,76.64
2019-02-17T18:45:19.318Z,75.58
2019-02-17T18:47:48.651Z,76.49
2019-02-17T18:50:18.856Z,76.84
2019-02-17T18:52:48.208Z,76.46
2019-02-17T18:55:17.578Z,77.02
2019-02-17T18:57:50.864Z,77.15
2019-02-17T19:00:25.590Z,77.51
2019-02-17T19:02:54.938Z,77.04
2019-02-17T19:05:32.045Z,76.34
2019-02-17T19:07:56.833Z,77.50
2019-02-17T19:10:26.215Z,75.92
2019-02-17T19:12:55.568Z,76.30
2019-02-17T19:15:24.946Z,76.20
2019-02-17T19:17:54.284Z,76.04
2019-02-17T19:20:31.458Z,76.40
2019-02-17T19:23:01.485Z,76.18
2019-02-17T19:25:30.864Z,76.91
2019-02-17T19:28:00.211Z,77.17
2019-02-17T19:30:29.592Z,78.09
2019-02-17T19:32:58.947Z,78.08
2019-02-17T19:35:28.322Z,78.52
2019-02-17T19:37:57.669Z,77.44
2019-02-17T19:40:29.891Z,76.98
2019-02-17T19:42:59.237Z,77.68
2019-02-17T19:45:28.616Z,78.05
2019-02-17T19:47:57.954Z,78.16
2019-02-17T19:50:27.602Z,78.04
2019-02-17T19:52:56.949Z,77.20
2019-02-17T19:55:26.322Z,77.32
2019-02-17T19:57:55.674Z,78.13
2019-02-17T20:00:26.094Z,77.93
2019-02-17T20:03:01.605Z,77.30
2019-02-17T20:05:32.614Z,77.25
2019-02-17T20:08:01.967Z,77.44
2019-02-17T20:10:31.345Z,76.30
2019-02-17T20:13:02.325Z,76.22
2019-02-17T20:15:33.354Z,76.04
2019-02-17T20:18:02.706Z,76.00
2019-02-17T20:20:32.079Z,76.11
2019-02-17T20:23:02.709Z,75.71
2019-02-17T20:25:32.089Z,76.78
2019-02-17T20:28:01.446Z,77.44
2019-02-17T20:30:30.802Z,78.32
2019-02-17T20:33:00.166Z,79.14
2019-02-17T20:35:29.523Z,78.75
2019-02-17T20:37:58.867Z,78.14
2019-02-17T20:40:28.241Z,78.78
2019-02-17T20:42:57.587Z,78.70
2019-02-17T20:45:26.953Z,77.89
2019-02-17T20:47:56.298Z,77.82
2019-02-17T20:50:26.088Z,78.59
2019-02-17T20:52:55.439Z,78.84
2019-02-17T20:55:25.168Z,79.25
2019-02-17T20:57:54.543Z,79.09
2019-02-17T21:00:25.713Z,79.05
2019-02-17T21:02:55.144Z,79.22
2019-02-17T21:05:24.591Z,79.38
2019-02-17T21:07:54.195Z,79.55
2019-02-17T21:10:23.927Z,79.72
2019-02-17T21:12:53.303Z,79.24
2019-02-17T21:15:22.921Z,79.73
2019-02-17T21:17:52.288Z,79.76
2019-02-17T21:20:22.406Z,78.86
2019-02-17T21:22:53.073Z,78.78
2019-02-17T21:25:22.600Z,78.97
2019-02-17T21:27:51.975Z,78.67
2019-02-17T21:30:21.322Z,78.89
2019-02-17T21:32:50.696Z,79.40
2019-02-17T21:35:20.055Z,78.93
2019-02-17T21:37:49.428Z,78.26
2019-02-17T21:40:18.943Z,78.74
2019-02-17T21:42:48.315Z,78.21
2019-02-17T21:45:17.666Z,78.85
2019-02-17T21:47:47.035Z,78.31
2019-02-17T21:50:16.384Z,78.10
2019-02-17T21:52:45.761Z,78.29
2019-02-17T21:55:15.287Z,78.65
2019-02-17T21:57:44.670Z,78.92
2019-02-17T22:00:19.918Z,78.55
2019-02-17T22:02:49.319Z,78.30
2019-02-17T22:05:18.831Z,79.18
2019-02-17T22:07:48.198Z,79.50
2019-02-17T22:10:20.890Z,80.09
2019-02-17T22:12:51.257Z,80.69
2019-02-17T22:15:22.314Z,80.38
2019-02-17T22:17:51.698Z,80.53
2019-02-17T22:20:21.044Z,80.14
2019-02-17T22:22:50.493Z,79.60
2019-02-17T22:25:19.842Z,79.57
2019-02-17T22:27:49.219Z,79.12
2019-02-17T22:30:18.577Z,79.54
2019-02-17T22:32:47.959Z,79.42
2019-02-17T22:35:17.330Z,79.53
2019-02-17T22:37:46.701Z,79.34
2019-02-17T22:40:16.218Z,79.83
2019-02-17T22:42:45.590Z,79.38
2019-02-17T22:45:15.104Z,79.58
2019-02-17T22:47:44.475Z,79.61
2019-02-17T22:50:14.465Z,79.94
2019-02-17T22:52:44.974Z,80.13
2019-02-17T22:55:14.602Z,80.31
2019-02-17T22:57:44.035Z,80.32
2019-02-17T23:00:19.481Z,80.65
2019-02-17T23:02:48.856Z,80.17
2019-02-17T23:05:18.191Z,80.43
2019-02-17T23:07:47.577Z,80.30
2019-02-17T23:10:16.919Z,80.62
2019-02-17T23:12:46.286Z,80.30
2019-02-17T23:15:15.633Z,80.79
2019-02-17T23:17:45.001Z,80.39
2019-02-17T23:20:14.347Z,79.92
2019-02-17T23:22:43.718Z,80.04
2019-02-17T23:25:13.058Z,79.56
2019-02-17T23:27:42.426Z,79.82
2019-02-17T23:30:12.139Z,80.28
2019-02-17T23:32:41.526Z,80.63
2019-02-17T23:35:11.466Z,79.21
2019-02-17T23:37:40.844Z,79.39
2019-02-17T23:40:11.256Z,80.14
2019-02-17T23:42:40.600Z,80.69
2019-02-17T23:45:13.707Z,80.25
2019-02-17T23:47:43.060Z,80.57
2019-02-17T23:50:12.152Z,80.14
2019-02-17T23:52:40.778Z,79.07
2019-02-17T23:55:09.893Z,78.88
2019-02-17T23:57:38.661Z,79.63
